createdAt,value
2023-04-12T00:01:25.296Z,9.16
2023-04-12T00:04:25.440Z,9.10
2023-04-12T00:07:27.304Z,9.11
2023-04-12T00:10:29.318Z,9.15
2023-04-12T00:13:29.340Z,9.18
2023-04-12T00:16:33.547Z,9.20
2023-04-12T00:19:33.419Z,9.16
2023-04-12T00:22:27.865Z,9.04
2023-04-12T00:25:29.380Z,8.98
2023-04-12T00:28:30.390Z,8.92
2023-04-12T00:31:30.400Z,8.89
2023-04-12T00:34:30.397Z,8.85
2023-04-12T00:37:31.375Z,8.79
2023-04-12T00:40:32.372Z,8.71
2023-04-12T00:43:33.452Z,8.62
2023-04-12T00:46:35.458Z,8.55
2023-04-12T00:49:36.435Z,8.51
2023-04-12T00:52:40.379Z,8.50
2023-04-12T00:55:40.393Z,8.48
2023-04-12T00:58:40.404Z,8.47
2023-04-12T01:01:48.050Z,8.46
2023-04-12T01:04:50.402Z,8.44
2023-04-12T01:07:53.482Z,8.39
2023-04-12T01:10:59.408Z,8.35
2023-04-12T01:14:04.492Z,8.28
2023-04-12T01:17:04.533Z,8.21
2023-04-12T01:20:24.422Z,8.19
2023-04-12T01:23:37.508Z,8.18
2023-04-12T01:26:43.447Z,8.18
2023-04-12T01:29:43.458Z,8.17
2023-04-12T01:32:43.541Z,8.12
2023-04-12T01:35:43.546Z,8.06
2023-04-12T01:38:43.527Z,8.00
2023-04-12T01:41:45.482Z,7.97
2023-04-12T01:44:45.463Z,7.92
2023-04-12T01:47:46.523Z,7.89
2023-04-12T01:50:54.455Z,7.91
2023-04-12T01:53:59.488Z,7.91
2023-04-12T01:57:06.558Z,7.91
2023-04-12T02:00:07.739Z,7.89
2023-04-12T02:03:07.554Z,7.86
2023-04-12T02:06:07.513Z,7.84
2023-04-12T02:09:13.584Z,7.84
2023-04-12T02:12:14.519Z,7.81
2023-04-12T02:15:14.544Z,7.79
2023-04-12T02:18:20.079Z,7.78
2023-04-12T02:21:20.592Z,7.76
2023-04-12T02:24:20.588Z,7.75
2023-04-12T02:27:20.570Z,7.75
2023-04-12T02:30:20.547Z,7.75
2023-04-12T02:33:21.604Z,7.74
2023-04-12T02:36:24.598Z,7.72
2023-04-12T02:39:25.557Z,7.71
2023-04-12T02:42:25.646Z,7.69
2023-04-12T02:45:25.590Z,7.69
2023-04-12T02:48:26.613Z,7.67
2023-04-12T02:51:26.624Z,7.68
2023-04-12T02:54:27.610Z,7.65
2023-04-12T02:57:27.626Z,7.60
2023-04-12T03:00:27.624Z,7.62
2023-04-12T03:03:43.727Z,7.63
2023-04-12T03:06:59.602Z,7.64
2023-04-12T03:10:20.694Z,7.66
2023-04-12T03:13:27.625Z,7.68
2023-04-12T03:16:38.635Z,7.69
2023-04-12T03:19:41.629Z,7.66
2023-04-12T03:22:42.678Z,7.59
2023-04-12T03:25:43.656Z,7.55
2023-04-12T03:29:02.682Z,7.47
2023-04-12T03:32:03.664Z,7.43
2023-04-12T03:35:03.668Z,7.41
2023-04-12T03:38:04.693Z,7.39
2023-04-12T03:41:04.887Z,7.39
2023-04-12T03:44:05.684Z,7.40
2023-04-12T03:47:05.776Z,7.41
2023-04-12T03:50:12.031Z,7.36
2023-04-12T03:53:19.763Z,7.32
2023-04-12T03:56:19.696Z,7.30
2023-04-12T03:59:21.681Z,7.31
2023-04-12T04:02:21.848Z,7.31
2023-04-12T04:05:22.702Z,7.32
2023-04-12T04:08:23.804Z,7.31
2023-04-12T04:11:24.761Z,7.33
2023-04-12T04:14:40.826Z,7.32
2023-04-12T04:17:48.812Z,7.31
2023-04-12T04:20:51.749Z,7.29
2023-04-12T04:23:53.759Z,7.32
2023-04-12T04:26:53.761Z,7.37
2023-04-12T04:29:54.818Z,7.40
2023-04-12T04:32:58.914Z,7.40
2023-04-12T04:36:00.948Z,7.41
2023-04-12T04:39:01.903Z,7.44
2023-04-12T04:42:05.855Z,7.47
2023-04-12T04:45:08.773Z,7.51
2023-04-12T04:48:10.821Z,7.54
2023-04-12T04:51:15.793Z,7.57
2023-04-12T04:54:15.783Z,7.59
2023-04-12T04:57:17.829Z,7.63
2023-04-12T05:00:21.872Z,7.70
2023-04-12T05:03:22.906Z,7.74
2023-04-12T05:06:22.847Z,7.75
2023-04-12T05:09:22.801Z,7.76
2023-04-12T05:12:22.980Z,7.77
2023-04-12T05:15:24.830Z,7.77
2023-04-12T05:18:27.870Z,7.82
2023-04-12T05:21:31.826Z,7.86
2023-04-12T05:24:32.898Z,7.87
2023-04-12T05:27:33.904Z,7.87
2023-04-12T05:30:33.933Z,7.91
2023-04-12T05:33:34.870Z,7.96
2023-04-12T05:36:34.921Z,8.00
2023-04-12T05:39:37.861Z,8.05
2023-04-12T05:42:37.883Z,8.07
2023-04-12T05:45:42.937Z,8.05
2023-04-12T05:48:45.881Z,8.04
2023-04-12T05:51:46.556Z,8.06
2023-04-12T05:55:02.938Z,8.08
2023-04-12T05:58:08.122Z,8.09
2023-04-12T06:01:09.010Z,8.08
2023-04-12T06:04:10.086Z,8.10
2023-04-12T06:07:11.958Z,8.11
2023-04-12T06:10:11.944Z,8.12
2023-04-12T06:13:19.936Z,8.14
2023-04-12T06:16:21.143Z,8.17
2023-04-12T06:19:20.937Z,8.20
2023-04-12T06:22:21.967Z,8.24
2023-04-12T06:25:22.050Z,8.25
2023-04-12T06:28:33.973Z,8.27
2023-04-12T06:31:34.077Z,8.31
2023-04-12T06:34:34.839Z,8.37
2023-04-12T06:37:40.049Z,8.38
2023-04-12T06:40:41.148Z,8.39
2023-04-12T06:43:41.020Z,8.41
2023-04-12T06:46:43.998Z,8.43
2023-04-12T06:49:45.062Z,8.44
2023-04-12T06:52:46.158Z,8.48
2023-04-12T06:55:46.049Z,8.51
2023-04-12T06:58:46.114Z,8.55
2023-04-12T07:01:46.047Z,8.60
2023-04-12T07:04:46.068Z,8.59
2023-04-12T07:07:46.001Z,8.61
2023-04-12T07:10:48.042Z,8.62
2023-04-12T07:13:51.063Z,8.62
2023-04-12T07:16:53.160Z,8.64
2023-04-12T07:19:53.419Z,8.65
2023-04-12T07:23:00.098Z,8.69
2023-04-12T07:26:00.148Z,8.72
2023-04-12T07:29:03.066Z,8.73
2023-04-12T07:32:08.108Z,8.74
2023-04-12T07:35:08.140Z,8.79
2023-04-12T07:38:10.176Z,8.84
2023-04-12T07:41:10.119Z,8.87
2023-04-12T07:44:12.101Z,8.90
2023-04-12T07:47:13.103Z,8.94
2023-04-12T07:50:13.438Z,8.94
2023-04-12T07:53:30.150Z,8.96
2023-04-12T07:56:30.152Z,8.95
2023-04-12T07:59:30.142Z,8.95
2023-04-12T08:02:33.260Z,8.97
2023-04-12T08:05:33.323Z,8.95
2023-04-12T08:08:37.136Z,8.93
2023-04-12T08:11:37.129Z,8.97
2023-04-12T08:14:39.145Z,9.00
2023-04-12T08:17:41.175Z,9.06
2023-04-12T08:20:41.168Z,9.08
2023-04-12T08:23:42.152Z,9.14
2023-04-12T08:26:42.237Z,9.21
2023-04-12T08:29:45.178Z,9.24
2023-04-12T08:32:46.257Z,9.24
2023-04-12T08:35:46.240Z,9.28
2023-04-12T08:38:46.781Z,9.30
2023-04-12T08:41:47.214Z,9.29
2023-04-12T08:44:51.252Z,9.28
2023-04-12T08:47:51.285Z,9.30
2023-04-12T08:50:52.290Z,9.32
2023-04-12T08:53:52.251Z,9.37
2023-04-12T08:56:59.204Z,9.42
2023-04-12T09:00:00.252Z,9.50
2023-04-12T09:03:03.356Z,9.56
2023-04-12T09:06:03.245Z,9.63
2023-04-12T09:09:08.259Z,9.68
2023-04-12T09:12:19.361Z,9.70
2023-04-12T09:15:20.546Z,9.68
2023-04-12T09:18:20.347Z,9.70
2023-04-12T09:21:24.073Z,9.74
2023-04-12T09:24:24.433Z,9.80
2023-04-12T09:27:27.278Z,9.86
2023-04-12T09:30:27.315Z,9.89
2023-04-12T09:33:33.371Z,9.90
2023-04-12T09:36:34.374Z,9.86
2023-04-12T09:39:45.369Z,9.83
2023-04-12T09:42:48.294Z,9.80
2023-04-12T09:45:49.404Z,9.81
2023-04-12T09:48:50.404Z,9.83
2023-04-12T09:51:50.444Z,9.83
2023-04-12T09:54:56.348Z,9.87
2023-04-12T09:57:56.404Z,9.90
2023-04-12T10:00:56.400Z,9.96
2023-04-12T10:04:00.107Z,10.00
2023-04-12T10:07:00.356Z,10.00
2023-04-12T10:10:01.387Z,9.99
2023-04-12T10:13:01.362Z,9.97
2023-04-12T10:16:02.430Z,9.94
2023-04-12T10:19:02.453Z,9.89
2023-04-12T10:22:02.430Z,9.92
2023-04-12T10:25:02.423Z,9.92
2023-04-12T10:28:03.574Z,9.88
2023-04-12T10:31:05.461Z,9.85
2023-04-12T10:34:06.400Z,9.86
2023-04-12T10:37:06.499Z,9.91
2023-04-12T10:40:06.453Z,9.96
2023-04-12T10:43:25.500Z,10.02
2023-04-12T10:46:44.567Z,10.06
2023-04-12T10:49:44.556Z,10.10
2023-04-12T10:52:47.476Z,10.07
2023-04-12T10:55:48.479Z,10.04
2023-04-12T10:59:01.626Z,10.04
2023-04-12T11:02:20.657Z,10.03
2023-04-12T11:05:25.573Z,9.99
2023-04-12T11:08:36.467Z,9.98
2023-04-12T11:11:56.530Z,9.94
2023-04-12T11:14:58.452Z,9.90
2023-04-12T11:18:10.613Z,9.87
2023-04-12T11:21:12.508Z,9.88
2023-04-12T11:24:12.527Z,9.93
2023-04-12T11:27:15.711Z,9.94
2023-04-12T11:30:21.322Z,9.96
2023-04-12T11:33:22.554Z,9.96
2023-04-12T11:36:24.577Z,9.95
2023-04-12T11:39:24.650Z,9.97
2023-04-12T11:42:27.719Z,9.98
2023-04-12T11:45:31.537Z,10.00
2023-04-12T11:48:32.616Z,9.98
2023-04-12T11:51:35.561Z,10.00
2023-04-12T11:54:35.740Z,10.05
2023-04-12T11:57:35.635Z,10.09
2023-04-12T12:00:37.611Z,10.13
2023-04-12T12:03:39.762Z,10.16
2023-04-12T12:06:39.805Z,10.20
2023-04-12T12:09:41.539Z,10.24
2023-04-12T12:12:43.576Z,10.29
2023-04-12T12:15:43.688Z,10.35
2023-04-12T12:18:53.089Z,10.42
2023-04-12T12:21:55.034Z,10.45
2023-04-12T12:25:04.596Z,10.49
2023-04-12T12:28:11.764Z,10.52
2023-04-12T12:31:13.690Z,10.54
2023-04-12T12:34:14.686Z,10.50
2023-04-12T12:37:14.682Z,10.50
2023-04-12T12:40:23.624Z,10.52
2023-04-12T12:43:30.731Z,10.58
2023-04-12T12:46:44.508Z,10.60
2023-04-12T12:49:48.855Z,10.61
2023-04-12T12:52:49.705Z,10.59
2023-04-12T12:55:49.750Z,10.61
2023-04-12T12:58:49.641Z,10.62
2023-04-12T13:01:50.882Z,10.63
2023-04-12T13:04:52.823Z,10.68
2023-04-12T13:07:53.699Z,10.69
2023-04-12T13:10:53.725Z,10.69
2023-04-12T13:13:54.934Z,10.69
2023-04-12T13:16:54.827Z,10.69
2023-04-12T13:20:00.683Z,10.69
2023-04-12T13:23:03.707Z,10.72
2023-04-12T13:26:04.802Z,10.73
2023-04-12T13:32:23.769Z,10.66
2023-04-12T13:35:23.733Z,10.64
2023-04-12T13:38:24.076Z,10.60
2023-04-12T13:41:23.782Z,10.60
2023-04-12T13:44:23.914Z,10.60
2023-04-12T13:47:28.584Z,10.60
2023-04-12T13:50:28.825Z,10.65
2023-04-12T13:53:36.873Z,10.68
2023-04-12T13:56:40.052Z,10.70
2023-04-12T13:59:33.982Z,10.72
2023-04-12T14:02:34.905Z,10.76
2023-04-12T14:05:34.755Z,10.77
2023-04-12T14:08:34.822Z,10.76
2023-04-12T14:11:35.777Z,10.73
2023-04-12T14:14:36.844Z,10.70
2023-04-12T14:17:38.855Z,10.69
2023-04-12T14:20:38.792Z,10.71
2023-04-12T14:23:39.808Z,10.72
2023-04-12T14:26:39.875Z,10.74
2023-04-12T14:29:39.866Z,10.75
2023-04-12T14:32:40.928Z,10.75
2023-04-12T14:35:40.797Z,10.81
2023-04-12T14:38:41.839Z,10.88
2023-04-12T14:41:41.842Z,10.93
2023-04-12T14:44:41.890Z,10.97
2023-04-12T14:47:42.030Z,11.01
2023-04-12T14:50:41.829Z,11.04
2023-04-12T14:53:46.015Z,11.09
2023-04-12T14:56:51.902Z,11.13
2023-04-12T15:00:00.946Z,11.17
2023-04-12T15:03:01.205Z,11.18
2023-04-12T15:06:05.006Z,11.19
2023-04-12T15:09:06.619Z,11.19
2023-04-12T15:12:10.025Z,11.18
2023-04-12T15:15:12.966Z,11.17
2023-04-12T15:18:13.901Z,11.15
2023-04-12T15:21:14.911Z,11.15
2023-04-12T15:24:17.935Z,11.16
2023-04-12T15:27:18.961Z,11.19
2023-04-12T15:30:20.938Z,11.23
2023-04-12T15:33:22.236Z,11.24
2023-04-12T15:36:25.996Z,11.25
2023-04-12T15:39:30.993Z,11.24
2023-04-12T15:42:31.042Z,11.22
2023-04-12T15:45:33.237Z,11.18
2023-04-12T15:48:36.922Z,11.13
2023-04-12T15:51:38.370Z,11.08
2023-04-12T15:54:48.018Z,11.04
2023-04-12T15:57:49.024Z,11.04
2023-04-12T16:00:52.273Z,11.03
2023-04-12T16:03:57.233Z,10.96
2023-04-12T16:06:59.009Z,10.86
2023-04-12T16:10:00.114Z,10.84
2023-04-12T16:12:59.985Z,10.84
2023-04-12T16:16:00.201Z,10.80
2023-04-12T16:19:01.077Z,10.77
2023-04-12T16:22:02.025Z,10.76
2023-04-12T16:25:05.052Z,10.72
2023-04-12T16:28:08.059Z,10.67
2023-04-12T16:31:09.186Z,10.62
2023-04-12T16:34:22.041Z,10.61
2023-04-12T16:37:22.067Z,10.60
2023-04-12T16:40:26.201Z,10.59
2023-04-12T16:43:26.222Z,10.60
2023-04-12T16:46:27.186Z,10.61
2023-04-12T16:49:27.113Z,10.62
2023-04-12T16:52:27.061Z,10.62
2023-04-12T16:55:31.105Z,10.60
2023-04-12T16:58:31.408Z,10.59
2023-04-12T17:01:35.122Z,10.59
2023-04-12T17:04:35.112Z,10.58
2023-04-12T17:07:35.148Z,10.58
2023-04-12T17:10:40.115Z,10.58
2023-04-12T17:13:41.151Z,10.58
2023-04-12T17:16:42.186Z,10.58
2023-04-12T17:19:46.180Z,10.60
2023-04-12T17:22:48.356Z,10.60
2023-04-12T17:25:57.235Z,10.60
2023-04-12T17:28:59.173Z,10.58
2023-04-12T17:32:03.331Z,10.55
2023-04-12T17:35:07.181Z,10.50
2023-04-12T17:38:11.454Z,10.50
2023-04-12T17:41:17.844Z,10.48
2023-04-12T17:44:19.692Z,10.47
2023-04-12T17:47:29.317Z,10.43
2023-04-12T17:50:29.201Z,10.39
2023-04-12T17:53:38.715Z,10.34
2023-04-12T17:56:40.273Z,10.31
2023-04-12T17:59:40.231Z,10.25
2023-04-12T18:02:42.824Z,10.21
2023-04-12T18:05:43.252Z,10.16
2023-04-12T18:08:50.218Z,10.11
2023-04-12T18:11:51.182Z,10.09
2023-04-12T18:14:52.238Z,10.07
2023-04-12T18:17:54.268Z,10.02
2023-04-12T18:20:58.570Z,10.01
2023-04-12T18:24:01.234Z,9.99
2023-04-12T18:27:05.231Z,9.92
2023-04-12T18:30:07.566Z,9.81
2023-04-12T18:33:07.359Z,9.72
2023-04-12T18:36:08.330Z,9.64
2023-04-12T18:39:08.288Z,9.56
2023-04-12T18:42:09.293Z,9.47
2023-04-12T18:45:09.267Z,9.40
2023-04-12T18:48:14.318Z,9.37
2023-04-12T18:51:14.762Z,9.37
2023-04-12T18:54:19.299Z,9.35
2023-04-12T18:57:19.379Z,9.34
2023-04-12T19:00:20.277Z,9.31
2023-04-12T19:03:24.151Z,9.27
2023-04-12T19:06:25.300Z,9.24
2023-04-12T19:09:25.302Z,9.22
2023-04-12T19:12:26.395Z,9.19
2023-04-12T19:15:26.388Z,9.18
2023-04-12T19:18:26.338Z,9.15
2023-04-12T19:21:26.417Z,9.15
2023-04-12T19:24:26.409Z,9.16
2023-04-12T19:27:26.389Z,9.15
2023-04-12T19:30:27.446Z,9.15
2023-04-12T19:33:48.419Z,9.14
2023-04-12T19:36:50.318Z,9.15
2023-04-12T19:39:50.366Z,9.15
2023-04-12T19:42:51.389Z,9.17
2023-04-12T19:45:51.527Z,9.16
2023-04-12T19:48:53.630Z,9.15
2023-04-12T19:51:54.421Z,9.14
2023-04-12T19:54:55.412Z,9.15
2023-04-12T19:57:56.435Z,9.16
2023-04-12T20:00:56.382Z,9.17
2023-04-12T20:03:58.433Z,9.19
2023-04-12T20:06:59.420Z,9.20
2023-04-12T20:09:59.428Z,9.21
2023-04-12T20:12:59.434Z,9.20
2023-04-12T20:16:00.445Z,9.17
2023-04-12T20:19:03.639Z,9.16
2023-04-12T20:22:09.554Z,9.19
2023-04-12T20:25:10.591Z,9.22
2023-04-12T20:28:11.425Z,9.24
2023-04-12T20:31:11.494Z,9.27
2023-04-12T20:34:12.447Z,9.29
2023-04-12T20:37:12.438Z,9.29
2023-04-12T20:40:15.454Z,9.29
2023-04-12T20:43:17.446Z,9.29
2023-04-12T20:46:21.486Z,9.27
2023-04-12T20:49:22.543Z,9.27
2023-04-12T20:52:25.374Z,9.26
2023-04-12T20:55:41.181Z,9.27
2023-04-12T20:58:41.474Z,9.28
2023-04-12T21:01:42.644Z,9.29
2023-04-12T21:04:47.598Z,9.30
2023-04-12T21:07:50.041Z,9.33
2023-04-12T21:10:50.611Z,9.34
2023-04-12T21:13:51.480Z,9.34
2023-04-12T21:16:54.536Z,9.35
2023-04-12T21:19:57.705Z,9.37
2023-04-12T21:23:07.143Z,9.39
2023-04-12T21:26:15.605Z,9.39
2023-04-12T21:29:26.581Z,9.41
2023-04-12T21:32:26.721Z,9.42
2023-04-12T21:35:28.539Z,9.42
2023-04-12T21:38:28.564Z,9.43
2023-04-12T21:41:31.712Z,9.42
2023-04-12T21:44:34.577Z,9.41
2023-04-12T21:47:49.195Z,9.42
2023-04-12T21:50:54.765Z,9.42
2023-04-12T21:53:59.567Z,9.44
2023-04-12T21:57:06.875Z,9.43
2023-04-12T22:00:15.591Z,9.42
2023-04-12T22:03:17.802Z,9.41
2023-04-12T22:06:37.215Z,9.39
2023-04-12T22:09:39.609Z,9.39
2023-04-12T22:12:39.589Z,9.40
2023-04-12T22:15:40.717Z,9.43
2023-04-12T22:18:40.634Z,9.45
2023-04-12T22:21:47.148Z,9.44
2023-04-12T22:24:48.603Z,9.48
2023-04-12T22:27:52.654Z,9.48
2023-04-12T22:30:54.642Z,9.44
2023-04-12T22:33:54.692Z,9.46
2023-04-12T22:37:04.631Z,9.44
2023-04-12T22:40:07.703Z,9.44
2023-04-12T22:43:07.728Z,9.45
2023-04-12T22:46:09.671Z,9.47
2023-04-12T22:49:09.644Z,9.48
2023-04-12T22:52:11.690Z,9.49
2023-04-12T22:55:11.711Z,9.51
2023-04-12T22:58:12.698Z,9.50
2023-04-12T23:01:12.736Z,9.45
2023-04-12T23:04:12.685Z,9.45
2023-04-12T23:07:12.717Z,9.45
2023-04-12T23:10:13.750Z,9.46
2023-04-12T23:13:15.746Z,9.45
2023-04-12T23:16:21.746Z,9.45
2023-04-12T23:19:22.729Z,9.45
2023-04-12T23:22:56.113Z,9.44
2023-04-12T23:25:57.761Z,9.42
2023-04-12T23:28:57.705Z,9.40
2023-04-12T23:31:58.780Z,9.38
2023-04-12T23:34:58.725Z,9.38
2023-04-12T23:38:00.739Z,9.35
2023-04-12T23:41:03.795Z,9.30
2023-04-12T23:43:58.093Z,9.24
2023-04-12T23:47:02.972Z,9.20
2023-04-12T23:50:03.738Z,9.17
2023-04-12T23:53:06.862Z,9.19
2023-04-12T23:56:06.791Z,9.17
2023-04-12T23:59:06.797Z,9.14
